Terminal Aerodrome Forecast
Issued by NWS San Angelo, TX

Home | Current Version | Previous Version | Text Only | Print | Product List | Glossary On
Versions: 1 2 3 4 5 6 7 8 9 10 11 12 13 14 15 16 17 18
000
FTUS44 KSJT 221700
TAFSJT
TAF
KSJT 221720Z 2218/2318 18015G23KT P6SM FEW060
     FM230100 16008KT P6SM SKC
     FM231600 18012G20KT P6SM FEW250=

USA.gov is the U.S. government's official web portal to all federal, state and local government web resources and services.